sensor_id;sensor_type;location;lat;lon;timestamp;P1;durP1;ratioP1;P2;durP2;ratioP2
37459;SDS011;23318;50.966;5.284;2023-01-04T00:01:11;7.18;;;1.67;;
37459;SDS011;23318;50.966;5.284;2023-01-04T00:03:38;5.05;;;1.48;;
37459;SDS011;23318;50.966;5.284;2023-01-04T00:06:05;7.25;;;2.15;;
37459;SDS011;23318;50.966;5.284;2023-01-04T00:08:32;7.75;;;1.75;;
37459;SDS011;23318;50.966;5.284;2023-01-04T00:10:59;10.40;;;1.40;;
37459;SDS011;23318;50.966;5.284;2023-01-04T00:13:26;17.58;;;1.73;;
37459;SDS011;23318;50.966;5.284;2023-01-04T00:15:52;10.73;;;2.13;;
37459;SDS011;23318;50.966;5.284;2023-01-04T00:18:17;4.93;;;1.65;;
37459;SDS011;23318;50.966;5.284;2023-01-04T00:20:43;4.35;;;1.70;;
37459;SDS011;23318;50.966;5.284;2023-01-04T00:23:08;9.23;;;2.40;;
37459;SDS011;23318;50.966;5.284;2023-01-04T00:25:36;3.72;;;1.35;;
37459;SDS011;23318;50.966;5.284;2023-01-04T00:28:03;9.30;;;1.30;;
37459;SDS011;23318;50.966;5.284;2023-01-04T00:30:29;7.07;;;2.05;;
37459;SDS011;23318;50.966;5.284;2023-01-04T00:32:55;5.00;;;1.80;;
37459;SDS011;23318;50.966;5.284;2023-01-04T00:35:21;8.70;;;1.42;;
37459;SDS011;23318;50.966;5.284;2023-01-04T00:37:47;7.30;;;2.47;;
37459;SDS011;23318;50.966;5.284;2023-01-04T00:40:13;10.90;;;2.53;;
37459;SDS011;23318;50.966;5.284;2023-01-04T00:42:38;6.78;;;1.75;;
37459;SDS011;23318;50.966;5.284;2023-01-04T00:45:04;4.75;;;1.60;;
37459;SDS011;23318;50.966;5.284;2023-01-04T00:47:30;7.70;;;1.83;;
37459;SDS011;23318;50.966;5.284;2023-01-04T00:49:56;9.32;;;1.63;;
37459;SDS011;23318;50.966;5.284;2023-01-04T00:52:21;5.38;;;1.60;;
37459;SDS011;23318;50.966;5.284;2023-01-04T00:54:47;9.23;;;2.53;;
37459;SDS011;23318;50.966;5.284;2023-01-04T00:57:13;5.35;;;1.25;;
37459;SDS011;23318;50.966;5.284;2023-01-04T00:59:38;7.28;;;1.67;;
37459;SDS011;23318;50.966;5.284;2023-01-04T01:02:04;6.03;;;1.75;;
37459;SDS011;23318;50.966;5.284;2023-01-04T01:04:33;7.18;;;1.63;;
37459;SDS011;23318;50.966;5.284;2023-01-04T01:06:58;8.07;;;2.20;;
37459;SDS011;23318;50.966;5.284;2023-01-04T01:09:24;6.47;;;1.98;;
37459;SDS011;23318;50.966;5.284;2023-01-04T01:11:51;3.67;;;1.13;;
37459;SDS011;23318;50.966;5.284;2023-01-04T01:14:19;6.38;;;1.77;;
37459;SDS011;23318;50.966;5.284;2023-01-04T01:16:47;7.22;;;1.92;;
37459;SDS011;23318;50.966;5.284;2023-01-04T01:19:13;3.05;;;0.93;;
37459;SDS011;23318;50.966;5.284;2023-01-04T01:21:38;5.60;;;1.73;;
37459;SDS011;23318;50.966;5.284;2023-01-04T01:24:05;6.70;;;1.40;;
37459;SDS011;23318;50.966;5.284;2023-01-04T01:26:31;3.20;;;0.80;;
37459;SDS011;23318;50.966;5.284;2023-01-04T01:28:57;5.05;;;1.30;;
37459;SDS011;23318;50.966;5.284;2023-01-04T01:31:25;5.57;;;1.35;;
37459;SDS011;23318;50.966;5.284;2023-01-04T01:33:53;5.32;;;1.00;;
37459;SDS011;23318;50.966;5.284;2023-01-04T01:36:21;4.35;;;0.70;;
37459;SDS011;23318;50.966;5.284;2023-01-04T01:38:47;3.15;;;0.82;;
37459;SDS011;23318;50.966;5.284;2023-01-04T01:41:18;3.72;;;0.77;;
37459;SDS011;23318;50.966;5.284;2023-01-04T01:46:21;3.28;;;1.15;;
37459;SDS011;23318;50.966;5.284;2023-01-04T01:51:20;3.28;;;0.70;;
37459;SDS011;23318;50.966;5.284;2023-01-04T01:53:47;3.40;;;0.68;;
37459;SDS011;23318;50.966;5.284;2023-01-04T01:56:18;1.70;;;0.47;;
37459;SDS011;23318;50.966;5.284;2023-01-04T01:58:45;2.45;;;0.85;;
37459;SDS011;23318;50.966;5.284;2023-01-04T02:01:16;1.20;;;0.60;;
37459;SDS011;23318;50.966;5.284;2023-01-04T02:03:42;2.67;;;0.80;;
37459;SDS011;23318;50.966;5.284;2023-01-04T02:06:12;2.85;;;0.75;;
37459;SDS011;23318;50.966;5.284;2023-01-04T02:08:42;3.17;;;0.45;;
37459;SDS011;23318;50.966;5.284;2023-01-04T02:11:09;0.60;;;0.40;;
37459;SDS011;23318;50.966;5.284;2023-01-04T02:13:35;2.35;;;0.32;;
37459;SDS011;23318;50.966;5.284;2023-01-04T02:16:31;1.02;;;0.40;;
37459;SDS011;23318;50.966;5.284;2023-01-04T02:38:04;1.48;;;0.20;;
37459;SDS011;23318;50.966;5.284;2023-01-04T02:43:59;0.10;;;0.10;;
37459;SDS011;23318;50.966;5.284;2023-01-04T02:46:31;1.95;;;0.30;;
37459;SDS011;23318;50.966;5.284;2023-01-04T02:49:00;1.45;;;0.20;;
37459;SDS011;23318;50.966;5.284;2023-01-04T02:51:45;0.10;;;0.10;;
37459;SDS011;23318;50.966;5.284;2023-01-04T02:54:12;1.27;;;0.20;;
37459;SDS011;23318;50.966;5.284;2023-01-04T03:08:39;0.55;;;0.30;;
37459;SDS011;23318;50.966;5.284;2023-01-04T03:11:14;2.53;;;0.70;;
37459;SDS011;23318;50.966;5.284;2023-01-04T03:14:14;0.35;;;0.20;;
37459;SDS011;23318;50.966;5.284;2023-01-04T03:16:43;0.40;;;0.20;;
37459;SDS011;23318;50.966;5.284;2023-01-04T03:19:11;0.95;;;0.20;;
37459;SDS011;23318;50.966;5.284;2023-01-04T03:22:01;3.13;;;0.30;;
37459;SDS011;23318;50.966;5.284;2023-01-04T03:24:29;0.85;;;0.40;;
37459;SDS011;23318;50.966;5.284;2023-01-04T03:27:15;0.30;;;0.20;;
37459;SDS011;23318;50.966;5.284;2023-01-04T03:30:06;0.52;;;0.40;;
37459;SDS011;23318;50.966;5.284;2023-01-04T03:33:02;0.57;;;0.40;;
37459;SDS011;23318;50.966;5.284;2023-01-04T03:47:02;4.90;;;0.93;;
37459;SDS011;23318;50.966;5.284;2023-01-04T03:50:15;2.13;;;0.50;;
37459;SDS011;23318;50.966;5.284;2023-01-04T03:52:52;2.75;;;0.60;;
37459;SDS011;23318;50.966;5.284;2023-01-04T03:55:20;1.40;;;0.60;;
37459;SDS011;23318;50.966;5.284;2023-01-04T03:57:46;2.47;;;0.65;;
37459;SDS011;23318;50.966;5.284;2023-01-04T04:00:14;3.45;;;0.70;;
37459;SDS011;23318;50.966;5.284;2023-01-04T04:02:42;2.67;;;0.70;;
37459;SDS011;23318;50.966;5.284;2023-01-04T04:05:20;1.00;;;0.75;;
37459;SDS011;23318;50.966;5.284;2023-01-04T04:08:06;2.03;;;0.68;;
37459;SDS011;23318;50.966;5.284;2023-01-04T04:10:57;4.32;;;0.95;;
37459;SDS011;23318;50.966;5.284;2023-01-04T04:13:43;1.23;;;0.77;;
37459;SDS011;23318;50.966;5.284;2023-01-04T04:16:10;4.00;;;1.00;;
37459;SDS011;23318;50.966;5.284;2023-01-04T04:18:35;5.35;;;0.80;;
37459;SDS011;23318;50.966;5.284;2023-01-04T04:21:01;1.33;;;0.80;;
37459;SDS011;23318;50.966;5.284;2023-01-04T04:23:27;1.83;;;0.55;;
37459;SDS011;23318;50.966;5.284;2023-01-04T04:25:52;0.95;;;0.68;;
37459;SDS011;23318;50.966;5.284;2023-01-04T04:28:18;3.67;;;0.80;;
37459;SDS011;23318;50.966;5.284;2023-01-04T04:30:44;1.48;;;0.60;;
37459;SDS011;23318;50.966;5.284;2023-01-04T04:33:09;1.23;;;0.68;;
37459;SDS011;23318;50.966;5.284;2023-01-04T04:35:35;2.90;;;0.77;;
37459;SDS011;23318;50.966;5.284;2023-01-04T04:38:00;2.22;;;0.73;;
37459;SDS011;23318;50.966;5.284;2023-01-04T04:40:26;2.08;;;0.80;;
37459;SDS011;23318;50.966;5.284;2023-01-04T04:43:10;1.92;;;0.80;;
37459;SDS011;23318;50.966;5.284;2023-01-04T04:45:36;3.30;;;1.02;;
37459;SDS011;23318;50.966;5.284;2023-01-04T04:48:02;2.65;;;0.95;;
37459;SDS011;23318;50.966;5.284;2023-01-04T04:50:27;2.05;;;1.08;;
37459;SDS011;23318;50.966;5.284;2023-01-04T04:52:53;3.10;;;1.27;;
37459;SDS011;23318;50.966;5.284;2023-01-04T04:55:19;2.90;;;1.00;;
37459;SDS011;23318;50.966;5.284;2023-01-04T04:57:44;2.22;;;1.05;;
37459;SDS011;23318;50.966;5.284;2023-01-04T05:00:10;1.48;;;0.93;;
37459;SDS011;23318;50.966;5.284;2023-01-04T05:02:37;6.72;;;1.13;;
37459;SDS011;23318;50.966;5.284;2023-01-04T05:05:02;3.88;;;0.80;;
37459;SDS011;23318;50.966;5.284;2023-01-04T05:07:28;2.42;;;0.75;;
37459;SDS011;23318;50.966;5.284;2023-01-04T05:09:54;5.32;;;1.50;;
37459;SDS011;23318;50.966;5.284;2023-01-04T05:12:20;2.65;;;1.15;;
37459;SDS011;23318;50.966;5.284;2023-01-04T05:15:04;1.25;;;1.02;;
37459;SDS011;23318;50.966;5.284;2023-01-04T05:17:30;2.03;;;0.98;;
37459;SDS011;23318;50.966;5.284;2023-01-04T05:19:55;3.10;;;0.98;;
37459;SDS011;23318;50.966;5.284;2023-01-04T05:22:21;2.58;;;1.10;;
37459;SDS011;23318;50.966;5.284;2023-01-04T05:24:47;2.75;;;0.95;;
37459;SDS011;23318;50.966;5.284;2023-01-04T05:27:15;1.65;;;1.00;;
37459;SDS011;23318;50.966;5.284;2023-01-04T05:29:41;2.70;;;1.00;;
37459;SDS011;23318;50.966;5.284;2023-01-04T05:34:50;5.30;;;1.00;;
37459;SDS011;23318;50.966;5.284;2023-01-04T05:37:16;13.02;;;1.70;;
37459;SDS011;23318;50.966;5.284;2023-01-04T05:39:41;3.70;;;0.95;;
37459;SDS011;23318;50.966;5.284;2023-01-04T05:42:07;1.77;;;0.55;;
37459;SDS011;23318;50.966;5.284;2023-01-04T05:44:55;2.38;;;1.10;;
37459;SDS011;23318;50.966;5.284;2023-01-04T05:47:22;1.55;;;1.08;;
37459;SDS011;23318;50.966;5.284;2023-01-04T05:49:49;2.75;;;0.90;;
37459;SDS011;23318;50.966;5.284;2023-01-04T05:52:15;1.27;;;0.55;;
37459;SDS011;23318;50.966;5.284;2023-01-04T05:54:41;2.35;;;0.63;;
37459;SDS011;23318;50.966;5.284;2023-01-04T05:57:07;1.85;;;0.77;;
37459;SDS011;23318;50.966;5.284;2023-01-04T05:59:33;2.08;;;0.85;;
37459;SDS011;23318;50.966;5.284;2023-01-04T06:01:59;2.78;;;0.98;;
37459;SDS011;23318;50.966;5.284;2023-01-04T06:04:24;0.60;;;0.45;;
37459;SDS011;23318;50.966;5.284;2023-01-04T06:06:50;2.03;;;0.95;;
37459;SDS011;23318;50.966;5.284;2023-01-04T06:09:16;5.10;;;0.90;;
37459;SDS011;23318;50.966;5.284;2023-01-04T06:11:42;2.78;;;0.82;;
37459;SDS011;23318;50.966;5.284;2023-01-04T06:14:08;3.20;;;1.10;;
37459;SDS011;23318;50.966;5.284;2023-01-04T06:16:33;1.92;;;0.77;;
37459;SDS011;23318;50.966;5.284;2023-01-04T06:18:59;5.13;;;1.48;;
37459;SDS011;23318;50.966;5.284;2023-01-04T06:21:25;1.65;;;0.93;;
37459;SDS011;23318;50.966;5.284;2023-01-04T06:23:51;1.90;;;0.60;;
37459;SDS011;23318;50.966;5.284;2023-01-04T06:26:17;2.72;;;0.98;;
37459;SDS011;23318;50.966;5.284;2023-01-04T06:28:43;3.05;;;0.80;;
37459;SDS011;23318;50.966;5.284;2023-01-04T06:31:09;3.50;;;1.17;;
37459;SDS011;23318;50.966;5.284;2023-01-04T06:33:35;3.83;;;0.70;;
37459;SDS011;23318;50.966;5.284;2023-01-04T06:36:02;1.13;;;0.50;;
37459;SDS011;23318;50.966;5.284;2023-01-04T06:38:28;1.98;;;0.68;;
37459;SDS011;23318;50.966;5.284;2023-01-04T06:40:55;4.10;;;0.98;;
37459;SDS011;23318;50.966;5.284;2023-01-04T06:43:20;3.22;;;0.73;;
37459;SDS011;23318;50.966;5.284;2023-01-04T06:45:46;1.70;;;0.80;;
37459;SDS011;23318;50.966;5.284;2023-01-04T06:48:12;4.93;;;0.80;;
37459;SDS011;23318;50.966;5.284;2023-01-04T06:50:38;1.98;;;0.60;;
37459;SDS011;23318;50.966;5.284;2023-01-04T06:53:03;1.13;;;0.80;;
37459;SDS011;23318;50.966;5.284;2023-01-04T06:55:29;1.25;;;0.57;;
37459;SDS011;23318;50.966;5.284;2023-01-04T06:57:55;2.50;;;1.02;;
37459;SDS011;23318;50.966;5.284;2023-01-04T07:00:22;2.88;;;1.20;;
37459;SDS011;23318;50.966;5.284;2023-01-04T07:02:48;2.22;;;1.00;;
37459;SDS011;23318;50.966;5.284;2023-01-04T07:05:14;1.60;;;0.80;;
37459;SDS011;23318;50.966;5.284;2023-01-04T07:07:39;2.03;;;1.08;;
37459;SDS011;23318;50.966;5.284;2023-01-04T07:10:05;2.78;;;1.00;;
37459;SDS011;23318;50.966;5.284;2023-01-04T07:12:31;3.25;;;1.15;;
37459;SDS011;23318;50.966;5.284;2023-01-04T07:14:57;2.00;;;1.00;;
37459;SDS011;23318;50.966;5.284;2023-01-04T07:17:23;3.92;;;1.48;;
37459;SDS011;23318;50.966;5.284;2023-01-04T07:19:48;3.13;;;0.90;;
37459;SDS011;23318;50.966;5.284;2023-01-04T07:22:14;1.38;;;0.80;;
37459;SDS011;23318;50.966;5.284;2023-01-04T07:24:41;1.27;;;0.85;;
37459;SDS011;23318;50.966;5.284;2023-01-04T07:27:08;5.55;;;1.20;;
37459;SDS011;23318;50.966;5.284;2023-01-04T07:29:34;4.43;;;1.23;;
37459;SDS011;23318;50.966;5.284;2023-01-04T07:32:00;3.92;;;0.60;;
37459;SDS011;23318;50.966;5.284;2023-01-04T07:34:26;1.65;;;0.90;;
37459;SDS011;23318;50.966;5.284;2023-01-04T07:36:52;1.85;;;0.93;;
37459;SDS011;23318;50.966;5.284;2023-01-04T07:39:18;4.07;;;1.10;;
37459;SDS011;23318;50.966;5.284;2023-01-04T07:41:45;3.50;;;1.13;;
37459;SDS011;23318;50.966;5.284;2023-01-04T07:44:11;6.15;;;1.02;;
37459;SDS011;23318;50.966;5.284;2023-01-04T07:46:38;2.50;;;0.98;;
37459;SDS011;23318;50.966;5.284;2023-01-04T07:49:04;3.72;;;0.90;;
37459;SDS011;23318;50.966;5.284;2023-01-04T07:51:30;2.22;;;1.35;;
37459;SDS011;23318;50.966;5.284;2023-01-04T07:53:57;6.18;;;1.60;;
37459;SDS011;23318;50.966;5.284;2023-01-04T07:56:23;4.60;;;1.40;;
37459;SDS011;23318;50.966;5.284;2023-01-04T07:58:49;6.47;;;1.00;;
37459;SDS011;23318;50.966;5.284;2023-01-04T08:01:16;4.65;;;1.20;;
37459;SDS011;23318;50.966;5.284;2023-01-04T08:03:45;2.97;;;0.95;;
37459;SDS011;23318;50.966;5.284;2023-01-04T08:06:12;2.85;;;1.00;;
37459;SDS011;23318;50.966;5.284;2023-01-04T08:08:39;2.80;;;0.70;;
37459;SDS011;23318;50.966;5.284;2023-01-04T08:11:10;2.25;;;0.90;;
37459;SDS011;23318;50.966;5.284;2023-01-04T08:13:38;2.15;;;0.80;;
37459;SDS011;23318;50.966;5.284;2023-01-04T08:16:04;1.60;;;0.73;;
37459;SDS011;23318;50.966;5.284;2023-01-04T08:18:31;5.25;;;1.30;;
37459;SDS011;23318;50.966;5.284;2023-01-04T08:21:04;2.55;;;0.70;;
37459;SDS011;23318;50.966;5.284;2023-01-04T08:23:31;2.63;;;0.63;;
37459;SDS011;23318;50.966;5.284;2023-01-04T08:26:05;0.98;;;0.82;;
37459;SDS011;23318;50.966;5.284;2023-01-04T08:28:33;3.00;;;1.15;;
37459;SDS011;23318;50.966;5.284;2023-01-04T08:31:03;3.97;;;1.00;;
37459;SDS011;23318;50.966;5.284;2023-01-04T08:33:39;1.17;;;0.70;;
37459;SDS011;23318;50.966;5.284;2023-01-04T08:36:10;1.70;;;0.77;;
37459;SDS011;23318;50.966;5.284;2023-01-04T08:38:44;1.02;;;0.50;;
37459;SDS011;23318;50.966;5.284;2023-01-04T08:41:10;2.53;;;0.80;;
37459;SDS011;23318;50.966;5.284;2023-01-04T08:43:37;2.08;;;1.00;;
37459;SDS011;23318;50.966;5.284;2023-01-04T08:46:03;1.20;;;0.80;;
37459;SDS011;23318;50.966;5.284;2023-01-04T08:48:29;3.38;;;0.80;;
37459;SDS011;23318;50.966;5.284;2023-01-04T08:51:00;3.10;;;0.60;;
37459;SDS011;23318;50.966;5.284;2023-01-04T08:53:27;2.33;;;0.95;;
37459;SDS011;23318;50.966;5.284;2023-01-04T08:55:53;1.02;;;0.73;;
37459;SDS011;23318;50.966;5.284;2023-01-04T08:58:20;1.95;;;0.90;;
37459;SDS011;23318;50.966;5.284;2023-01-04T09:00:47;1.92;;;0.90;;
37459;SDS011;23318;50.966;5.284;2023-01-04T09:03:13;1.75;;;0.88;;
37459;SDS011;23318;50.966;5.284;2023-01-04T09:05:39;3.97;;;1.10;;
37459;SDS011;23318;50.966;5.284;2023-01-04T09:08:05;2.75;;;0.57;;
37459;SDS011;23318;50.966;5.284;2023-01-04T09:10:31;1.83;;;0.80;;
37459;SDS011;23318;50.966;5.284;2023-01-04T09:12:57;4.10;;;1.15;;
37459;SDS011;23318;50.966;5.284;2023-01-04T09:15:23;6.57;;;1.30;;
37459;SDS011;23318;50.966;5.284;2023-01-04T09:17:49;4.40;;;1.15;;
37459;SDS011;23318;50.966;5.284;2023-01-04T09:20:14;3.20;;;1.00;;
37459;SDS011;23318;50.966;5.284;2023-01-04T09:22:40;2.15;;;1.08;;
37459;SDS011;23318;50.966;5.284;2023-01-04T09:25:06;3.00;;;0.68;;
37459;SDS011;23318;50.966;5.284;2023-01-04T09:27:32;3.13;;;0.98;;
37459;SDS011;23318;50.966;5.284;2023-01-04T09:29:58;1.92;;;0.93;;
37459;SDS011;23318;50.966;5.284;2023-01-04T09:32:24;6.68;;;1.42;;
37459;SDS011;23318;50.966;5.284;2023-01-04T09:34:50;3.05;;;1.10;;
37459;SDS011;23318;50.966;5.284;2023-01-04T09:37:16;4.15;;;1.27;;
37459;SDS011;23318;50.966;5.284;2023-01-04T09:39:42;3.88;;;1.20;;
37459;SDS011;23318;50.966;5.284;2023-01-04T09:42:27;3.50;;;0.88;;
37459;SDS011;23318;50.966;5.284;2023-01-04T09:47:46;5.65;;;1.25;;
37459;SDS011;23318;50.966;5.284;2023-01-04T09:50:20;3.15;;;1.13;;
37459;SDS011;23318;50.966;5.284;2023-01-04T09:55:50;3.28;;;1.25;;
37459;SDS011;23318;50.966;5.284;2023-01-04T09:58:27;1.98;;;1.00;;
37459;SDS011;23318;50.966;5.284;2023-01-04T10:01:02;4.85;;;1.88;;
37459;SDS011;23318;50.966;5.284;2023-01-04T10:03:53;4.63;;;1.35;;
37459;SDS011;23318;50.966;5.284;2023-01-04T10:06:39;6.05;;;1.45;;
37459;SDS011;23318;50.966;5.284;2023-01-04T10:09:14;6.38;;;1.40;;
37459;SDS011;23318;50.966;5.284;2023-01-04T10:36:01;5.35;;;1.15;;
37459;SDS011;23318;50.966;5.284;2023-01-04T10:38:31;5.38;;;1.23;;
37459;SDS011;23318;50.966;5.284;2023-01-04T10:41:05;3.70;;;1.08;;
37459;SDS011;23318;50.966;5.284;2023-01-04T10:43:38;3.95;;;1.40;;
37459;SDS011;23318;50.966;5.284;2023-01-04T10:46:12;5.70;;;1.70;;
37459;SDS011;23318;50.966;5.284;2023-01-04T10:48:56;4.88;;;1.80;;
37459;SDS011;23318;50.966;5.284;2023-01-04T10:51:53;5.65;;;2.17;;
37459;SDS011;23318;50.966;5.284;2023-01-04T10:56:48;2.47;;;1.00;;
37459;SDS011;23318;50.966;5.284;2023-01-04T10:59:32;2.50;;;1.10;;
37459;SDS011;23318;50.966;5.284;2023-01-04T11:02:18;6.03;;;1.33;;
37459;SDS011;23318;50.966;5.284;2023-01-04T11:05:11;3.15;;;1.25;;
37459;SDS011;23318;50.966;5.284;2023-01-04T11:08:07;5.10;;;1.20;;
37459;SDS011;23318;50.966;5.284;2023-01-04T11:10:41;5.00;;;1.35;;
37459;SDS011;23318;50.966;5.284;2023-01-04T11:13:15;3.30;;;1.60;;
37459;SDS011;23318;50.966;5.284;2023-01-04T11:15:41;6.85;;;1.25;;
37459;SDS011;23318;50.966;5.284;2023-01-04T11:18:07;3.42;;;1.50;;
37459;SDS011;23318;50.966;5.284;2023-01-04T11:20:35;4.85;;;1.50;;
37459;SDS011;23318;50.966;5.284;2023-01-04T11:23:14;3.42;;;1.35;;
37459;SDS011;23318;50.966;5.284;2023-01-04T11:25:43;4.57;;;1.00;;
37459;SDS011;23318;50.966;5.284;2023-01-04T11:33:49;2.72;;;0.90;;
37459;SDS011;23318;50.966;5.284;2023-01-04T11:39:20;1.38;;;0.90;;
37459;SDS011;23318;50.966;5.284;2023-01-04T11:41:54;4.37;;;1.37;;
37459;SDS011;23318;50.966;5.284;2023-01-04T11:44:29;3.22;;;1.00;;
37459;SDS011;23318;50.966;5.284;2023-01-04T11:49:43;2.28;;;1.05;;
37459;SDS011;23318;50.966;5.284;2023-01-04T11:52:28;2.53;;;0.98;;
37459;SDS011;23318;50.966;5.284;2023-01-04T11:54:55;2.05;;;1.00;;
37459;SDS011;23318;50.966;5.284;2023-01-04T11:57:39;3.25;;;1.40;;
37459;SDS011;23318;50.966;5.284;2023-01-04T12:00:09;2.80;;;1.02;;
37459;SDS011;23318;50.966;5.284;2023-01-04T12:02:41;2.35;;;1.20;;
37459;SDS011;23318;50.966;5.284;2023-01-04T12:05:25;1.75;;;1.02;;
37459;SDS011;23318;50.966;5.284;2023-01-04T12:07:56;6.22;;;1.17;;
37459;SDS011;23318;50.966;5.284;2023-01-04T12:10:23;1.80;;;1.00;;
37459;SDS011;23318;50.966;5.284;2023-01-04T12:12:51;3.65;;;1.15;;
37459;SDS011;23318;50.966;5.284;2023-01-04T12:16:06;3.53;;;1.17;;
37459;SDS011;23318;50.966;5.284;2023-01-04T12:18:18;1.48;;;1.10;;
37459;SDS011;23318;50.966;5.284;2023-01-04T12:20:49;2.35;;;1.02;;
37459;SDS011;23318;50.966;5.284;2023-01-04T12:23:15;3.25;;;1.13;;
37459;SDS011;23318;50.966;5.284;2023-01-04T12:25:45;5.53;;;1.45;;
37459;SDS011;23318;50.966;5.284;2023-01-04T12:28:34;1.77;;;1.25;;
37459;SDS011;23318;50.966;5.284;2023-01-04T12:33:48;1.90;;;1.30;;
37459;SDS011;23318;50.966;5.284;2023-01-04T12:36:16;4.05;;;2.00;;
37459;SDS011;23318;50.966;5.284;2023-01-04T12:39:01;5.68;;;1.50;;
37459;SDS011;23318;50.966;5.284;2023-01-04T12:44:02;5.00;;;1.58;;
37459;SDS011;23318;50.966;5.284;2023-01-04T12:46:50;11.60;;;1.45;;
37459;SDS011;23318;50.966;5.284;2023-01-04T13:02:35;2.75;;;1.33;;
37459;SDS011;23318;50.966;5.284;2023-01-04T13:07:50;1.45;;;1.08;;
37459;SDS011;23318;50.966;5.284;2023-01-04T13:18:55;1.88;;;0.93;;
37459;SDS011;23318;50.966;5.284;2023-01-04T13:23:52;2.70;;;0.90;;
37459;SDS011;23318;50.966;5.284;2023-01-04T13:29:43;3.30;;;1.00;;
37459;SDS011;23318;50.966;5.284;2023-01-04T13:32:04;1.48;;;1.00;;
37459;SDS011;23318;50.966;5.284;2023-01-04T13:37:11;2.50;;;1.13;;
37459;SDS011;23318;50.966;5.284;2023-01-04T13:39:49;3.80;;;0.98;;
37459;SDS011;23318;50.966;5.284;2023-01-04T13:42:30;1.67;;;0.90;;
37459;SDS011;23318;50.966;5.284;2023-01-04T13:47:41;4.60;;;1.27;;
37459;SDS011;23318;50.966;5.284;2023-01-04T13:55:22;2.75;;;0.82;;
37459;SDS011;23318;50.966;5.284;2023-01-04T14:00:22;3.33;;;1.00;;
37459;SDS011;23318;50.966;5.284;2023-01-04T14:05:54;0.90;;;0.75;;
37459;SDS011;23318;50.966;5.284;2023-01-04T14:10:51;0.85;;;0.70;;
37459;SDS011;23318;50.966;5.284;2023-01-04T14:13:17;2.67;;;0.77;;
37459;SDS011;23318;50.966;5.284;2023-01-04T14:15:44;4.28;;;0.60;;
37459;SDS011;23318;50.966;5.284;2023-01-04T14:18:29;1.20;;;0.50;;
37459;SDS011;23318;50.966;5.284;2023-01-04T14:20:55;2.88;;;0.70;;
37459;SDS011;23318;50.966;5.284;2023-01-04T14:23:25;3.20;;;0.80;;
37459;SDS011;23318;50.966;5.284;2023-01-04T14:25:53;1.23;;;0.50;;
37459;SDS011;23318;50.966;5.284;2023-01-04T14:33:37;1.08;;;0.40;;
37459;SDS011;23318;50.966;5.284;2023-01-04T14:41:11;4.43;;;1.60;;
37459;SDS011;23318;50.966;5.284;2023-01-04T14:46:25;1.48;;;0.40;;
37459;SDS011;23318;50.966;5.284;2023-01-04T14:48:52;1.95;;;0.43;;
37459;SDS011;23318;50.966;5.284;2023-01-04T14:51:19;2.33;;;0.70;;
37459;SDS011;23318;50.966;5.284;2023-01-04T14:53:48;1.00;;;0.50;;
37459;SDS011;23318;50.966;5.284;2023-01-04T14:56:15;4.55;;;0.50;;
37459;SDS011;23318;50.966;5.284;2023-01-04T14:58:42;0.98;;;0.47;;
37459;SDS011;23318;50.966;5.284;2023-01-04T15:01:09;0.85;;;0.40;;
37459;SDS011;23318;50.966;5.284;2023-01-04T15:03:36;2.88;;;0.73;;
37459;SDS011;23318;50.966;5.284;2023-01-04T15:06:02;5.03;;;0.57;;
37459;SDS011;23318;50.966;5.284;2023-01-04T15:08:29;0.65;;;0.50;;
37459;SDS011;23318;50.966;5.284;2023-01-04T15:10:55;1.42;;;0.60;;
37459;SDS011;23318;50.966;5.284;2023-01-04T15:13:21;1.48;;;0.40;;
37459;SDS011;23318;50.966;5.284;2023-01-04T15:15:47;4.10;;;0.80;;
37459;SDS011;23318;50.966;5.284;2023-01-04T15:18:12;1.65;;;0.70;;
37459;SDS011;23318;50.966;5.284;2023-01-04T15:20:40;1.42;;;1.00;;
37459;SDS011;23318;50.966;5.284;2023-01-04T15:23:06;0.95;;;0.70;;
37459;SDS011;23318;50.966;5.284;2023-01-04T15:25:32;1.00;;;0.80;;
37459;SDS011;23318;50.966;5.284;2023-01-04T15:27:59;2.60;;;0.70;;
37459;SDS011;23318;50.966;5.284;2023-01-04T15:30:24;1.70;;;1.08;;
37459;SDS011;23318;50.966;5.284;2023-01-04T15:32:51;3.35;;;0.90;;
37459;SDS011;23318;50.966;5.284;2023-01-04T15:35:16;3.80;;;1.60;;
37459;SDS011;23318;50.966;5.284;2023-01-04T15:37:43;4.22;;;1.05;;
37459;SDS011;23318;50.966;5.284;2023-01-04T15:40:09;2.53;;;1.00;;
37459;SDS011;23318;50.966;5.284;2023-01-04T15:42:36;3.15;;;0.65;;
37459;SDS011;23318;50.966;5.284;2023-01-04T15:45:21;2.80;;;0.70;;
37459;SDS011;23318;50.966;5.284;2023-01-04T15:47:48;2.00;;;0.80;;
37459;SDS011;23318;50.966;5.284;2023-01-04T15:50:14;2.92;;;0.80;;
37459;SDS011;23318;50.966;5.284;2023-01-04T15:52:41;2.35;;;0.65;;
37459;SDS011;23318;50.966;5.284;2023-01-04T15:55:07;2.67;;;0.70;;
37459;SDS011;23318;50.966;5.284;2023-01-04T15:57:33;4.07;;;0.60;;
37459;SDS011;23318;50.966;5.284;2023-01-04T15:59:58;1.67;;;0.90;;
37459;SDS011;23318;50.966;5.284;2023-01-04T16:02:24;3.45;;;1.30;;
37459;SDS011;23318;50.966;5.284;2023-01-04T16:04:50;3.47;;;1.40;;
37459;SDS011;23318;50.966;5.284;2023-01-04T16:07:16;4.75;;;1.25;;
37459;SDS011;23318;50.966;5.284;2023-01-04T16:09:42;12.45;;;1.92;;
37459;SDS011;23318;50.966;5.284;2023-01-04T16:12:08;9.50;;;1.77;;
37459;SDS011;23318;50.966;5.284;2023-01-04T16:14:52;13.93;;;2.17;;
37459;SDS011;23318;50.966;5.284;2023-01-04T16:17:18;17.55;;;2.55;;
37459;SDS011;23318;50.966;5.284;2023-01-04T16:19:43;13.63;;;2.72;;
37459;SDS011;23318;50.966;5.284;2023-01-04T16:22:09;10.75;;;2.55;;
37459;SDS011;23318;50.966;5.284;2023-01-04T16:24:35;14.23;;;2.45;;
37459;SDS011;23318;50.966;5.284;2023-01-04T16:27:01;24.08;;;3.45;;
37459;SDS011;23318;50.966;5.284;2023-01-04T16:29:26;17.35;;;3.88;;
37459;SDS011;23318;50.966;5.284;2023-01-04T16:31:52;15.73;;;2.50;;
37459;SDS011;23318;50.966;5.284;2023-01-04T16:34:18;24.90;;;4.22;;
37459;SDS011;23318;50.966;5.284;2023-01-04T16:36:43;22.65;;;3.60;;
37459;SDS011;23318;50.966;5.284;2023-01-04T16:39:09;23.90;;;4.38;;
37459;SDS011;23318;50.966;5.284;2023-01-04T16:41:35;17.88;;;3.88;;
37459;SDS011;23318;50.966;5.284;2023-01-04T16:44:03;17.35;;;3.67;;
37459;SDS011;23318;50.966;5.284;2023-01-04T16:46:30;18.40;;;4.85;;
37459;SDS011;23318;50.966;5.284;2023-01-04T16:49:04;17.77;;;4.28;;
37459;SDS011;23318;50.966;5.284;2023-01-04T16:51:32;16.67;;;2.92;;
37459;SDS011;23318;50.966;5.284;2023-01-04T16:54:03;19.02;;;3.70;;
37459;SDS011;23318;50.966;5.284;2023-01-04T16:56:30;22.30;;;4.68;;
37459;SDS011;23318;50.966;5.284;2023-01-04T16:58:56;24.48;;;4.18;;
37459;SDS011;23318;50.966;5.284;2023-01-04T17:01:23;19.02;;;3.22;;
37459;SDS011;23318;50.966;5.284;2023-01-04T17:03:53;23.88;;;3.70;;
37459;SDS011;23318;50.966;5.284;2023-01-04T17:06:21;23.00;;;4.18;;
37459;SDS011;23318;50.966;5.284;2023-01-04T17:08:48;24.35;;;4.32;;
37459;SDS011;23318;50.966;5.284;2023-01-04T17:11:17;20.98;;;4.90;;
37459;SDS011;23318;50.966;5.284;2023-01-04T17:13:53;25.77;;;4.63;;
37459;SDS011;23318;50.966;5.284;2023-01-04T17:16:19;26.63;;;4.85;;
37459;SDS011;23318;50.966;5.284;2023-01-04T17:18:46;29.45;;;6.05;;
37459;SDS011;23318;50.966;5.284;2023-01-04T17:21:13;25.08;;;4.55;;
37459;SDS011;23318;50.966;5.284;2023-01-04T17:23:41;20.52;;;4.55;;
37459;SDS011;23318;50.966;5.284;2023-01-04T17:26:12;20.33;;;4.50;;
37459;SDS011;23318;50.966;5.284;2023-01-04T17:28:43;22.10;;;5.22;;
37459;SDS011;23318;50.966;5.284;2023-01-04T17:33:40;26.25;;;5.43;;
37459;SDS011;23318;50.966;5.284;2023-01-04T17:36:07;23.27;;;4.13;;
37459;SDS011;23318;50.966;5.284;2023-01-04T17:38:34;30.67;;;5.03;;
37459;SDS011;23318;50.966;5.284;2023-01-04T17:41:11;27.60;;;6.25;;
37459;SDS011;23318;50.966;5.284;2023-01-04T17:43:45;27.33;;;4.47;;
37459;SDS011;23318;50.966;5.284;2023-01-04T17:46:13;27.67;;;6.53;;